Time,TemperatureF,DewpointF,PressureIn,WindDirection,WindDirectionDegrees,WindSpeedMPH,WindSpeedGustMPH,Humidity,HourlyPrecipIn,Conditions,Clouds,dailyrainin,SolarRadiationWatts/m^2,SoftwareType,DateUTC
2013-10-03 00:02:00,32.0,24.0,-100.00,North,6,7.0,11.0,72,0.00,,,0.12,0.000000,,2013-10-03 06:02:00,
2013-10-03 00:42:00,32.0,26.0,-100.00,North,5,8.0,19.0,77,0.00,,,0.12,0.000000,,2013-10-03 06:42:00,
2013-10-03 00:52:00,32.0,26.0,-100.00,North,5,8.0,19.0,77,0.00,,,0.12,0.000000,,2013-10-03 06:52:00,
2013-10-03 01:02:00,32.0,26.0,-100.00,North,5,8.0,19.0,77,0.00,,,0.12,0.000000,,2013-10-03 07:02:00,
2013-10-03 01:42:00,32.0,25.0,-100.00,NNE,17,7.0,16.0,75,0.00,,,0.12,0.000000,,2013-10-03 07:42:00,
2013-10-03 01:52:00,32.0,25.0,-100.00,NNE,17,7.0,16.0,75,0.00,,,0.12,0.000000,,2013-10-03 07:52:00,
2013-10-03 02:02:00,32.0,25.0,-100.00,NNE,17,7.0,16.0,75,0.00,,,0.12,0.000000,,2013-10-03 08:02:00,
2013-10-03 02:42:00,30.0,27.0,-100.00,North,0,12.0,20.0,90,0.00,,,0.12,0.000000,,2013-10-03 08:42:00,
2013-10-03 02:52:00,30.0,27.0,-100.00,North,0,12.0,20.0,90,0.00,,,0.12,0.000000,,2013-10-03 08:52:00,
2013-10-03 03:02:00,30.0,27.0,-100.00,North,0,12.0,20.0,90,0.00,,,0.12,0.000000,,2013-10-03 09:02:00,
2013-10-03 03:43:00,29.0,29.0,-100.00,North,359,10.0,21.0,100,0.00,,,0.12,0.000000,,2013-10-03 09:43:00,
2013-10-03 03:53:00,29.0,29.0,-100.00,North,359,10.0,21.0,100,0.00,,,0.12,0.000000,,2013-10-03 09:53:00,
2013-10-03 04:03:00,29.0,29.0,-100.00,North,359,10.0,21.0,100,0.00,,,0.12,0.000000,,2013-10-03 10:03:00,
2013-10-03 04:43:00,29.0,29.0,-100.00,North,359,11.0,20.0,100,0.00,,,0.12,0.000000,,2013-10-03 10:43:00,
2013-10-03 04:52:00,29.0,29.0,-100.00,North,359,11.0,20.0,100,0.00,,,0.12,0.000000,,2013-10-03 10:52:00,
2013-10-03 05:02:00,29.0,29.0,-100.00,North,359,11.0,20.0,100,0.00,,,0.12,0.000000,,2013-10-03 11:02:00,
2013-10-03 05:42:00,28.0,28.0,-100.00,North,3,13.0,25.0,100,0.00,,,0.12,0.000000,,2013-10-03 11:42:00,
2013-10-03 05:52:00,28.0,28.0,-100.00,North,3,13.0,25.0,100,0.00,,,0.12,0.000000,,2013-10-03 11:52:00,
2013-10-03 06:01:00,28.0,28.0,-100.00,North,3,13.0,25.0,100,0.00,,,0.12,0.000000,,2013-10-03 12:01:00,
2013-10-03 06:42:00,28.0,28.0,-100.00,North,359,11.0,21.0,100,0.00,,,0.12,0.000000,,2013-10-03 12:42:00,
2013-10-03 06:52:00,28.0,28.0,-100.00,North,359,11.0,21.0,100,0.00,,,0.12,0.000000,,2013-10-03 12:52:00,
2013-10-03 07:01:00,28.0,28.0,-100.00,North,359,11.0,21.0,100,0.00,,,0.12,0.000000,,2013-10-03 13:01:00,
2013-10-03 07:42:00,27.0,27.0,-100.00,North,5,11.0,24.0,100,0.00,,,0.12,0.000000,,2013-10-03 13:42:00,
2013-10-03 07:52:00,27.0,27.0,-100.00,North,5,11.0,24.0,100,0.00,,,0.12,0.000000,,2013-10-03 13:52:00,
2013-10-03 08:02:00,27.0,27.0,-100.00,North,5,11.0,24.0,100,0.00,,,0.12,0.000000,,2013-10-03 14:02:00,
2013-10-03 08:42:00,27.0,27.0,-100.00,North,4,13.0,23.0,100,0.00,,,0.12,2.000000,,2013-10-03 14:42:00,
2013-10-03 08:52:00,27.0,27.0,-100.00,North,4,13.0,23.0,100,0.00,,,0.12,2.000000,,2013-10-03 14:52:00,
2013-10-03 09:01:00,27.0,27.0,-100.00,North,4,13.0,23.0,100,0.00,,,0.12,2.000000,,2013-10-03 15:01:00,
2013-10-03 09:43:00,27.0,27.0,-100.00,North,0,12.0,24.0,100,0.00,,,0.12,17.000000,,2013-10-03 15:43:00,
2013-10-03 09:53:00,27.0,27.0,-100.00,North,0,12.0,24.0,100,0.00,,,0.12,17.000000,,2013-10-03 15:53:00,
2013-10-03 10:03:00,27.0,27.0,-100.00,North,0,12.0,24.0,100,0.00,,,0.12,17.000000,,2013-10-03 16:03:00,
2013-10-03 10:43:00,27.0,27.0,-100.00,North,2,9.0,19.0,100,0.00,,,0.08,54.000000,,2013-10-03 16:43:00,
2013-10-03 10:53:00,27.0,27.0,-100.00,North,2,9.0,19.0,100,0.00,,,0.08,54.000000,,2013-10-03 16:53:00,
2013-10-03 11:03:00,27.0,27.0,-100.00,North,2,9.0,19.0,100,0.00,,,0.08,54.000000,,2013-10-03 17:03:00,
2013-10-03 11:42:00,27.0,27.0,-100.00,North,3,12.0,22.0,100,0.00,,,0.01,131.000000,,2013-10-03 17:42:00,
2013-10-03 11:52:00,27.0,27.0,-100.00,North,3,12.0,22.0,100,0.00,,,0.01,131.000000,,2013-10-03 17:52:00,
2013-10-03 12:01:00,27.0,27.0,-100.00,North,3,12.0,22.0,100,0.00,,,0.01,131.000000,,2013-10-03 18:01:00,
2013-10-03 12:42:00,26.0,26.0,-100.00,North,355,13.0,20.0,100,0.00,,,0.00,147.000000,,2013-10-03 18:42:00,
2013-10-03 12:52:00,26.0,26.0,-100.00,North,355,13.0,20.0,100,0.00,,,0.00,147.000000,,2013-10-03 18:52:00,
2013-10-03 13:01:00,26.0,26.0,-100.00,North,355,13.0,20.0,100,0.00,,,0.00,147.000000,,2013-10-03 19:01:00,
2013-10-03 13:42:00,26.0,26.0,-100.00,North,8,14.0,25.0,100,0.00,,,0.00,148.000000,,2013-10-03 19:42:00,
2013-10-03 13:52:00,26.0,26.0,-100.00,North,8,14.0,25.0,100,0.00,,,0.00,148.000000,,2013-10-03 19:52:00,
2013-10-03 14:02:00,26.0,26.0,-100.00,North,8,14.0,25.0,100,0.00,,,0.00,148.000000,,2013-10-03 20:02:00,
2013-10-03 14:42:00,27.0,27.0,-100.00,North,1,12.0,26.0,100,0.00,,,0.00,134.000000,,2013-10-03 20:42:00,
2013-10-03 14:52:00,27.0,27.0,-100.00,North,1,12.0,26.0,100,0.00,,,0.00,134.000000,,2013-10-03 20:52:00,
2013-10-03 15:02:00,27.0,27.0,-100.00,North,1,12.0,26.0,100,0.00,,,0.00,134.000000,,2013-10-03 21:02:00,
2013-10-03 15:43:00,27.0,27.0,-100.00,North,3,14.0,25.0,100,0.00,,,0.00,165.000000,,2013-10-03 21:43:00,
2013-10-03 15:54:00,27.0,27.0,-100.00,North,3,14.0,25.0,100,0.00,,,0.00,165.000000,,2013-10-03 21:54:00,
2013-10-03 16:04:00,27.0,27.0,-100.00,North,3,14.0,25.0,100,0.00,,,0.00,165.000000,,2013-10-03 22:04:00,
2013-10-03 16:43:00,28.0,28.0,-100.00,North,1,12.0,26.0,100,0.00,,,0.00,212.000000,,2013-10-03 22:43:00,
2013-10-03 16:54:00,28.0,28.0,-100.00,North,1,12.0,26.0,100,0.00,,,0.00,212.000000,,2013-10-03 22:54:00,
2013-10-03 17:03:00,28.0,28.0,-100.00,North,1,12.0,26.0,100,0.00,,,0.00,212.000000,,2013-10-03 23:03:00,
2013-10-03 17:43:00,28.0,28.0,-100.00,North,2,13.0,23.0,100,0.00,,,0.00,226.000000,,2013-10-03 23:43:00,
2013-10-03 17:52:00,28.0,28.0,-100.00,North,2,13.0,23.0,100,0.00,,,0.00,226.000000,,2013-10-03 23:52:00,
2013-10-03 18:02:00,28.0,28.0,-100.00,North,2,13.0,23.0,100,0.00,,,0.00,226.000000,,2013-10-04 00:02:00,
2013-10-03 18:42:00,27.0,27.0,-100.00,North,1,10.0,23.0,100,0.00,,,0.00,104.000000,,2013-10-04 00:42:00,
2013-10-03 18:52:00,27.0,27.0,-100.00,North,1,10.0,23.0,100,0.00,,,0.00,104.000000,,2013-10-04 00:52:00,
2013-10-03 19:02:00,27.0,27.0,-100.00,North,1,10.0,23.0,100,0.00,,,0.00,104.000000,,2013-10-04 01:02:00,
2013-10-03 19:42:00,26.0,26.0,-100.00,NNE,14,10.0,19.0,98,0.00,,,0.00,25.000000,,2013-10-04 01:42:00,
2013-10-03 19:52:00,26.0,26.0,-100.00,NNE,14,10.0,19.0,98,0.00,,,0.00,25.000000,,2013-10-04 01:52:00,
2013-10-03 20:02:00,26.0,26.0,-100.00,NNE,14,10.0,19.0,98,0.00,,,0.00,25.000000,,2013-10-04 02:02:00,
2013-10-03 20:43:00,26.0,26.0,-100.00,North,5,10.0,17.0,100,0.00,,,0.00,1.000000,,2013-10-04 02:43:00,
2013-10-03 20:52:00,26.0,26.0,-100.00,North,5,10.0,17.0,100,0.00,,,0.00,1.000000,,2013-10-04 02:52:00,
2013-10-03 21:02:00,26.0,26.0,-100.00,North,5,10.0,17.0,100,0.00,,,0.00,1.000000,,2013-10-04 03:02:00,
2013-10-03 21:44:00,25.0,18.0,-100.00,North,1,13.0,22.0,75,0.00,,,0.00,0.000000,,2013-10-04 03:44:00,
2013-10-03 21:59:00,25.0,18.0,-100.00,North,1,13.0,22.0,75,0.00,,,0.00,0.000000,,2013-10-04 03:59:00,
2013-10-03 22:09:00,25.0,19.0,-100.00,North,4,14.0,21.0,79,0.00,,,0.00,0.000000,,2013-10-04 04:09:00,
2013-10-03 22:51:00,25.0,19.0,-100.00,North,4,14.0,21.0,79,0.00,,,0.00,0.000000,,2013-10-04 04:51:00,
2013-10-03 23:06:00,25.0,19.0,-100.00,North,4,14.0,21.0,79,0.00,,,0.00,0.000000,,2013-10-04 05:06:00,
2013-10-03 23:49:00,25.0,18.0,-100.00,North,2,15.0,24.0,73,0.00,,,0.00,0.000000,,2013-10-04 05:49:00,
2013-10-03 23:57:00,25.0,18.0,-100.00,North,2,15.0,24.0,73,0.00,,,0.00,0.000000,,2013-10-04 05:57:00,